Time;durP1;ratioP1;P1;durP2;ratioP2;P2;SDS_P1;SDS_P2;PMS_P1;PMS_P2;Temp;Humidity;BMP_temperature;BMP_pressure;BME280_temperature;BME280_humidity;BME280_pressure;Samples;Min_cycle;Max_cycle;Signal;HPM_P1;HPM_P2
2022/06/05 00:01:20;;;;;;;6.43;5.83;;;;;;;;;;4972608;28;20458;-53
2022/06/05 00:04:08;;;;;;;6.47;5.87;;;;;;;;;;4973322;28;20404;-52
2022/06/05 00:06:33;;;;;;;6.70;6.10;;;;;;;;;;4973213;28;20445;-52
2022/06/05 00:08:59;;;;;;;6.40;5.90;;;;;;;;;;4973208;28;20816;-53
2022/06/05 00:11:26;;;;;;;6.80;6.30;;;;;;;;;;4972816;28;20487;-51
2022/06/05 00:13:55;;;;;;;6.03;5.30;;;;;;;;;;4973040;28;20390;-54
2022/06/05 00:16:24;;;;;;;8.83;6.73;;;;;;;;;;4972916;28;20469;-52
2022/06/05 00:18:50;;;;;;;7.53;6.83;;;;;;;;;;4973027;28;20378;-52
2022/06/05 00:21:17;;;;;;;7.00;6.40;;;;;;;;;;4972849;28;20418;-51
2022/06/05 00:23:43;;;;;;;7.17;6.47;;;;;;;;;;4973174;28;20388;-53
2022/06/05 00:26:29;;;;;;;10.53;6.80;;;;;;;;;;4972959;28;20396;-51
2022/06/05 00:29:28;;;;;;;7.77;6.43;;;;;;;;;;4972966;28;20868;-54
2022/06/05 00:31:57;;;;;;;6.80;6.20;;;;;;;;;;4972777;28;20936;-50
2022/06/05 00:34:23;;;;;;;6.90;6.40;;;;;;;;;;4973079;28;20738;-50
2022/06/05 00:37:01;;;;;;;7.20;6.50;;;;;;;;;;4972754;28;20522;-51
2022/06/05 00:39:34;;;;;;;7.33;6.73;;;;;;;;;;4955214;28;20448;-51
2022/06/05 00:42:05;;;;;;;7.03;6.43;;;;;;;;;;4972536;28;20801;-50
2022/06/05 00:44:34;;;;;;;8.33;7.53;;;;;;;;;;4973108;28;20412;-50
2022/06/05 00:47:00;;;;;;;9.40;8.37;;;;;;;;;;4973143;28;20425;-50
2022/06/05 00:49:32;;;;;;;8.03;7.23;;;;;;;;;;4976589;28;20464;-51
2022/06/05 00:51:58;;;;;;;10.83;7.53;;;;;;;;;;4976825;28;20954;-50
2022/06/05 00:54:24;;;;;;;9.50;8.00;;;;;;;;;;4976763;28;20512;-50
2022/06/05 00:56:50;;;;;;;8.13;7.30;;;;;;;;;;4976517;28;20805;-50
2022/06/05 00:59:18;;;;;;;9.27;8.33;;;;;;;;;;4976567;28;20766;-52
2022/06/05 01:01:44;;;;;;;8.77;7.90;;;;;;;;;;4975528;28;20409;-52
2022/06/05 01:04:11;;;;;;;9.27;7.63;;;;;;;;;;4976131;28;20448;-50
2022/06/05 01:06:37;;;;;;;8.37;7.47;;;;;;;;;;4975700;28;20421;-51
2022/06/05 01:09:05;;;;;;;7.87;7.27;;;;;;;;;;4975987;28;20389;-51
2022/06/05 01:12:00;;;;;;;10.60;8.80;;;;;;;;;;4976001;28;20483;-52
2022/06/05 01:14:29;;;;;;;9.00;8.20;;;;;;;;;;4955913;28;20979;-51
2022/06/05 01:17:15;;;;;;;8.77;7.90;;;;;;;;;;4976228;28;20456;-51
2022/06/05 01:19:41;;;;;;;8.77;7.90;;;;;;;;;;4959281;28;20419;-52
2022/06/05 01:22:26;;;;;;;9.10;8.20;;;;;;;;;;4975881;28;20488;-53
2022/06/05 01:25:13;;;;;;;8.13;7.33;;;;;;;;;;4975861;28;20751;-51
2022/06/05 01:27:40;;;;;;;7.67;7.03;;;;;;;;;;4975977;28;20451;-50
2022/06/05 01:30:09;;;;;;;7.43;6.73;;;;;;;;;;4975800;28;20408;-51
2022/06/05 01:32:38;;;;;;;8.37;7.10;;;;;;;;;;4975896;28;20503;-50
2022/06/05 01:35:19;;;;;;;8.20;7.43;;;;;;;;;;4975612;28;20430;-52
2022/06/05 01:38:05;;;;;;;8.57;7.77;;;;;;;;;;4975891;28;20805;-50
2022/06/05 01:40:35;;;;;;;9.07;8.13;;;;;;;;;;4974967;28;20945;-52
2022/06/05 01:43:06;;;;;;;8.67;7.37;;;;;;;;;;4975445;28;20489;-52
2022/06/05 01:45:36;;;;;;;9.90;9.00;;;;;;;;;;4975796;28;20427;-51
2022/06/05 01:48:05;;;;;;;8.10;7.37;;;;;;;;;;4975860;28;20528;-52
2022/06/05 01:50:34;;;;;;;7.80;7.10;;;;;;;;;;4975332;28;20416;-50
2022/06/05 01:53:05;;;;;;;8.07;7.37;;;;;;;;;;4975554;28;20419;-50
2022/06/05 01:55:35;;;;;;;9.03;8.13;;;;;;;;;;4975362;28;20804;-51
2022/06/05 01:58:04;;;;;;;9.63;8.80;;;;;;;;;;4975462;28;20447;-51
2022/06/05 02:00:30;;;;;;;10.97;7.97;;;;;;;;;;4974333;28;20424;-52
2022/06/05 02:02:56;;;;;;;8.23;7.53;;;;;;;;;;4975401;28;20902;-51
2022/06/05 02:05:42;;;;;;;9.10;8.30;;;;;;;;;;4975181;28;20434;-52
2022/06/05 02:08:32;;;;;;;8.97;7.20;;;;;;;;;;4975406;28;20379;-52
2022/06/05 02:11:18;;;;;;;8.30;7.60;;;;;;;;;;4962379;28;20531;-51
2022/06/05 02:13:44;;;;;;;8.53;7.73;;;;;;;;;;4958817;28;20419;-51
2022/06/05 02:16:10;;;;;;;9.20;8.30;;;;;;;;;;4975698;28;20439;-55
2022/06/05 02:18:36;;;;;;;9.17;8.27;;;;;;;;;;4976160;28;20437;-56
2022/06/05 02:21:03;;;;;;;11.10;10.10;;;;;;;;;;4975555;28;20443;-56
2022/06/05 02:23:32;;;;;;;9.47;7.70;;;;;;;;;;4976106;28;20845;-55
2022/06/05 02:25:58;;;;;;;8.90;8.20;;;;;;;;;;4975877;28;20395;-55
2022/06/05 02:28:24;;;;;;;8.67;7.87;;;;;;;;;;4975802;28;20860;-56
2022/06/05 02:31:11;;;;;;;8.93;8.10;;;;;;;;;;4975950;28;20776;-55
2022/06/05 02:33:37;;;;;;;8.53;7.83;;;;;;;;;;4975935;28;20442;-56
2022/06/05 02:36:12;;;;;;;8.80;8.07;;;;;;;;;;4975482;28;20456;-55
2022/06/05 02:38:52;;;;;;;10.60;8.53;;;;;;;;;;4975736;28;20383;-55
2022/06/05 02:41:28;;;;;;;9.70;8.67;;;;;;;;;;4975270;28;20511;-56
2022/06/05 02:46:45;;;;;;;8.20;7.40;;;;;;;;;;4975288;28;20391;-55
2022/06/05 02:49:16;;;;;;;8.40;7.60;;;;;;;;;;4975372;28;20448;-55
2022/06/05 02:51:44;;;;;;;9.50;8.50;;;;;;;;;;4974229;28;20475;-52
2022/06/05 02:54:17;;;;;;;9.20;8.40;;;;;;;;;;4974489;28;20380;-53
2022/06/05 02:56:43;;;;;;;8.77;7.97;;;;;;;;;;4974209;28;20527;-53
2022/06/05 02:59:09;;;;;;;9.80;8.80;;;;;;;;;;4974251;28;20494;-54
2022/06/05 03:04:20;;;;;;;8.70;7.83;;;;;;;;;;4974434;28;20903;-52
2022/06/05 03:06:46;;;;;;;10.40;9.50;;;;;;;;;;4973996;28;20416;-53
2022/06/05 03:09:12;;;;;;;8.50;7.73;;;;;;;;;;4974104;28;20826;-53
2022/06/05 03:11:38;;;;;;;8.60;7.87;;;;;;;;;;4973639;28;20392;-53
2022/06/05 03:14:05;;;;;;;9.90;8.80;;;;;;;;;;4974242;28;20486;-54
2022/06/05 03:16:31;;;;;;;10.20;9.20;;;;;;;;;;4973748;28;20521;-53
2022/06/05 03:18:57;;;;;;;9.90;8.87;;;;;;;;;;4973896;28;20465;-54
2022/06/05 03:21:23;;;;;;;10.87;9.17;;;;;;;;;;4973558;28;20446;-53
2022/06/05 03:23:49;;;;;;;12.13;9.20;;;;;;;;;;4973867;28;20499;-54
2022/06/05 03:26:15;;;;;;;10.13;9.03;;;;;;;;;;4973611;28;20511;-53
2022/06/05 03:28:41;;;;;;;10.03;9.03;;;;;;;;;;4973757;28;20404;-53
2022/06/05 03:31:07;;;;;;;10.00;9.10;;;;;;;;;;4973250;28;20423;-53
2022/06/05 03:33:33;;;;;;;9.80;8.90;;;;;;;;;;4973792;28;20756;-53
2022/06/05 03:35:59;;;;;;;10.07;8.73;;;;;;;;;;4973276;28;20875;-53
2022/06/05 03:38:26;;;;;;;12.73;8.93;;;;;;;;;;4973426;28;20485;-53
2022/06/05 03:40:52;;;;;;;10.57;9.47;;;;;;;;;;4973213;28;20460;-54
2022/06/05 03:43:18;;;;;;;10.50;8.97;;;;;;;;;;4973743;28;20423;-53
2022/06/05 03:45:44;;;;;;;10.40;9.50;;;;;;;;;;4973410;28;20417;-53
2022/06/05 03:48:12;;;;;;;9.00;8.20;;;;;;;;;;4973526;28;20466;-54
2022/06/05 03:50:38;;;;;;;16.20;8.97;;;;;;;;;;4973260;28;20426;-53
2022/06/05 03:53:04;;;;;;;10.40;8.10;;;;;;;;;;4973212;28;20413;-53
2022/06/05 03:55:31;;;;;;;10.17;9.20;;;;;;;;;;4973221;28;20425;-53
2022/06/05 03:57:57;;;;;;;9.40;8.50;;;;;;;;;;4973239;28;20461;-53
2022/06/05 04:00:23;;;;;;;9.23;8.33;;;;;;;;;;4973069;28;20500;-52
2022/06/05 04:02:50;;;;;;;9.97;8.97;;;;;;;;;;4973211;28;20379;-53
2022/06/05 04:05:17;;;;;;;9.67;8.87;;;;;;;;;;4973189;28;20972;-53
2022/06/05 04:07:43;;;;;;;9.60;8.70;;;;;;;;;;4973293;28;20519;-53
2022/06/05 04:10:14;;;;;;;9.00;8.20;;;;;;;;;;4972904;28;20502;-53
2022/06/05 04:12:40;;;;;;;10.40;8.50;;;;;;;;;;4974451;28;20387;-55
2022/06/05 04:15:06;;;;;;;10.00;9.00;;;;;;;;;;4973874;28;20417;-56
2022/06/05 04:17:32;;;;;;;9.80;8.73;;;;;;;;;;4974077;28;20452;-56
2022/06/05 04:19:58;;;;;;;9.80;8.90;;;;;;;;;;4972790;28;20572;-56
2022/06/05 04:22:24;;;;;;;9.27;8.07;;;;;;;;;;4973755;28;20380;-55
2022/06/05 04:24:50;;;;;;;9.70;8.30;;;;;;;;;;4974345;28;20438;-55
2022/06/05 04:27:16;;;;;;;9.73;8.83;;;;;;;;;;4974998;28;20379;-55
2022/06/05 04:29:42;;;;;;;9.30;8.53;;;;;;;;;;4975031;28;20407;-56
2022/06/05 04:32:08;;;;;;;9.87;8.50;;;;;;;;;;4974989;28;20408;-56
2022/06/05 04:34:35;;;;;;;9.37;8.43;;;;;;;;;;4975500;28;20383;-55
2022/06/05 04:37:01;;;;;;;12.17;8.83;;;;;;;;;;4975061;28;20439;-56
2022/06/05 04:39:27;;;;;;;8.83;7.83;;;;;;;;;;4975579;28;20432;-56
2022/06/05 04:41:53;;;;;;;9.00;8.20;;;;;;;;;;4975219;28;20437;-56
2022/06/05 04:44:19;;;;;;;8.90;8.00;;;;;;;;;;4975609;28;20377;-56
2022/06/05 04:46:46;;;;;;;8.20;7.50;;;;;;;;;;4975735;28;20479;-56
2022/06/05 04:49:13;;;;;;;12.23;8.73;;;;;;;;;;4976324;28;20898;-55
2022/06/05 04:51:39;;;;;;;9.90;9.00;;;;;;;;;;4975559;28;20420;-56
2022/06/05 04:54:06;;;;;;;9.90;8.70;;;;;;;;;;4976239;28;20416;-56
2022/06/05 04:56:32;;;;;;;9.40;8.50;;;;;;;;;;4976062;28;21024;-56
2022/06/05 04:58:58;;;;;;;10.17;9.27;;;;;;;;;;4976470;28;20379;-56
2022/06/05 05:01:25;;;;;;;9.07;8.30;;;;;;;;;;4975965;28;20399;-56
2022/06/05 05:03:52;;;;;;;8.10;7.27;;;;;;;;;;4976628;28;20440;-55
2022/06/05 05:06:18;;;;;;;9.00;8.27;;;;;;;;;;4975962;28;20426;-56
2022/06/05 05:08:44;;;;;;;8.00;7.40;;;;;;;;;;4976431;28;20380;-56
2022/06/05 05:11:10;;;;;;;10.97;8.20;;;;;;;;;;4974660;28;20502;-55
2022/06/05 05:13:36;;;;;;;9.40;8.40;;;;;;;;;;4975570;28;20416;-56
2022/06/05 05:16:03;;;;;;;8.77;7.90;;;;;;;;;;4976305;28;20402;-56
2022/06/05 05:18:29;;;;;;;8.13;7.43;;;;;;;;;;4976652;28;20464;-56
2022/06/05 05:20:54;;;;;;;9.30;7.57;;;;;;;;;;4975940;28;20870;-56
2022/06/05 05:23:21;;;;;;;8.30;7.50;;;;;;;;;;4976182;28;20413;-55
2022/06/05 05:25:47;;;;;;;9.10;8.30;;;;;;;;;;4975945;28;20509;-55
2022/06/05 05:28:14;;;;;;;9.00;7.33;;;;;;;;;;4976368;28;20407;-55
2022/06/05 05:30:44;;;;;;;8.43;7.63;;;;;;;;;;4976210;28;20446;-56
2022/06/05 05:33:11;;;;;;;9.10;8.30;;;;;;;;;;4976713;28;20408;-56
2022/06/05 05:35:36;;;;;;;8.17;7.40;;;;;;;;;;4979283;28;20740;-56
2022/06/05 05:38:02;;;;;;;8.50;7.57;;;;;;;;;;4980033;28;20999;-56
2022/06/05 05:43:13;;;;;;;9.07;8.17;;;;;;;;;;4979767;28;20408;-56
2022/06/05 05:45:39;;;;;;;8.43;7.57;;;;;;;;;;4980307;28;20408;-56
2022/06/05 05:48:05;;;;;;;8.73;7.87;;;;;;;;;;4980114;28;20788;-56
2022/06/05 05:50:31;;;;;;;7.83;7.13;;;;;;;;;;4980239;28;20993;-55
2022/06/05 05:52:57;;;;;;;7.40;6.80;;;;;;;;;;4979672;28;20424;-56
2022/06/05 05:55:23;;;;;;;8.60;7.60;;;;;;;;;;4979387;28;20434;-56
2022/06/05 05:57:50;;;;;;;8.87;7.87;;;;;;;;;;4980763;28;20463;-56
2022/06/05 06:00:17;;;;;;;12.30;7.30;;;;;;;;;;4981064;28;20409;-56
2022/06/05 06:02:44;;;;;;;8.37;7.57;;;;;;;;;;4980736;28;20402;-56
2022/06/05 06:05:12;;;;;;;8.00;7.30;;;;;;;;;;4980691;28;20394;-56
2022/06/05 06:07:39;;;;;;;7.83;7.20;;;;;;;;;;4981257;28;20458;-56
2022/06/05 06:10:05;;;;;;;8.80;7.83;;;;;;;;;;4979267;28;20473;-56
2022/06/05 06:12:31;;;;;;;9.57;7.27;;;;;;;;;;4980603;28;20416;-56
2022/06/05 06:14:57;;;;;;;7.27;6.67;;;;;;;;;;4980587;28;20422;-56
2022/06/05 06:17:23;;;;;;;7.73;6.90;;;;;;;;;;4979748;28;20459;-56
2022/06/05 06:19:49;;;;;;;7.30;6.50;;;;;;;;;;4980075;28;20780;-56
2022/06/05 06:22:16;;;;;;;7.93;7.33;;;;;;;;;;4979705;28;20408;-56
2022/06/05 06:24:42;;;;;;;7.60;7.00;;;;;;;;;;4979665;28;20426;-56
2022/06/05 06:27:08;;;;;;;7.67;7.17;;;;;;;;;;4979920;28;20411;-56
2022/06/05 06:29:35;;;;;;;8.53;7.77;;;;;;;;;;4979960;28;20487;-56
2022/06/05 06:32:01;;;;;;;10.80;8.40;;;;;;;;;;4980029;28;20795;-56
2022/06/05 06:34:27;;;;;;;8.50;7.80;;;;;;;;;;4979873;28;20483;-56
2022/06/05 06:36:53;;;;;;;9.67;8.67;;;;;;;;;;4979920;28;20464;-56
2022/06/05 06:39:20;;;;;;;8.57;7.77;;;;;;;;;;4979388;28;20421;-56
2022/06/05 06:41:46;;;;;;;7.63;7.03;;;;;;;;;;4978052;28;20429;-56
2022/06/05 06:44:12;;;;;;;8.97;8.20;;;;;;;;;;4974556;28;20467;-56
2022/06/05 06:46:38;;;;;;;8.57;7.80;;;;;;;;;;4979339;28;20558;-56
2022/06/05 06:49:05;;;;;;;8.40;7.70;;;;;;;;;;4979059;28;20453;-56
2022/06/05 06:51:31;;;;;;;9.03;7.83;;;;;;;;;;4979299;28;20810;-56
2022/06/05 06:53:57;;;;;;;8.40;7.60;;;;;;;;;;4979650;28;20774;-56
2022/06/05 06:56:24;;;;;;;8.07;6.73;;;;;;;;;;4978958;28;20452;-56
2022/06/05 06:58:50;;;;;;;7.70;7.13;;;;;;;;;;4979018;28;20408;-56
2022/06/05 07:01:16;;;;;;;8.70;7.80;;;;;;;;;;4975108;28;20411;-54
2022/06/05 07:03:42;;;;;;;8.70;7.20;;;;;;;;;;4974238;28;20488;-52
2022/06/05 07:06:09;;;;;;;7.23;6.63;;;;;;;;;;4974420;28;20412;-53
2022/06/05 07:08:36;;;;;;;8.00;7.30;;;;;;;;;;4956880;28;20927;-51
2022/06/05 07:11:05;;;;;;;8.07;7.43;;;;;;;;;;4974113;28;20436;-51
2022/06/05 07:13:31;;;;;;;7.40;6.80;;;;;;;;;;4973975;28;20439;-52
2022/06/05 07:15:57;;;;;;;7.50;6.90;;;;;;;;;;4973930;28;20405;-53
2022/06/05 07:18:23;;;;;;;7.70;7.10;;;;;;;;;;4974001;28;20405;-53
2022/06/05 07:20:50;;;;;;;7.30;6.63;;;;;;;;;;4974221;28;20441;-52
2022/06/05 07:23:16;;;;;;;8.73;7.10;;;;;;;;;;4974267;28;20405;-56
2022/06/05 07:25:46;;;;;;;8.67;7.83;;;;;;;;;;4960628;28;20948;-56
2022/06/05 07:28:12;;;;;;;7.50;6.97;;;;;;;;;;4975199;28;20473;-53
2022/06/05 07:30:38;;;;;;;7.70;7.07;;;;;;;;;;4973526;28;20425;-53
2022/06/05 07:33:04;;;;;;;7.57;6.87;;;;;;;;;;4973300;28;20434;-54
2022/06/05 07:35:31;;;;;;;7.47;6.87;;;;;;;;;;4973652;28;20413;-54
2022/06/05 07:37:57;;;;;;;8.77;7.97;;;;;;;;;;4973650;28;21247;-54
2022/06/05 07:40:23;;;;;;;7.27;6.63;;;;;;;;;;4973654;28;20451;-54
2022/06/05 07:42:49;;;;;;;7.20;6.70;;;;;;;;;;4972765;28;20439;-53
2022/06/05 07:45:16;;;;;;;7.40;6.77;;;;;;;;;;4973710;28;20423;-54
2022/06/05 07:47:44;;;;;;;9.93;7.43;;;;;;;;;;4973354;28;20426;-53
2022/06/05 07:50:11;;;;;;;7.33;6.83;;;;;;;;;;4974460;28;20955;-56
2022/06/05 07:55:21;;;;;;;8.00;7.30;;;;;;;;;;4974570;28;20475;-51
2022/06/05 07:57:47;;;;;;;6.80;6.30;;;;;;;;;;4974161;28;20458;-52
2022/06/05 08:00:14;;;;;;;10.60;7.30;;;;;;;;;;4976648;28;20449;-55
2022/06/05 08:02:40;;;;;;;7.30;6.80;;;;;;;;;;4972491;28;20424;-54
2022/06/05 08:05:07;;;;;;;7.90;7.20;;;;;;;;;;4973246;28;20914;-55
2022/06/05 08:07:33;;;;;;;8.20;6.90;;;;;;;;;;4973209;28;20482;-53
2022/06/05 08:10:00;;;;;;;8.83;8.13;;;;;;;;;;4972768;28;20440;-51
2022/06/05 08:12:28;;;;;;;8.13;7.53;;;;;;;;;;4972842;28;20428;-51
2022/06/05 08:14:54;;;;;;;7.07;6.57;;;;;;;;;;4972673;28;20951;-50
2022/06/05 08:17:23;;;;;;;10.03;7.63;;;;;;;;;;4971980;28;20514;-52
2022/06/05 08:19:49;;;;;;;7.47;6.97;;;;;;;;;;4972342;28;20878;-51
2022/06/05 08:22:16;;;;;;;7.80;7.03;;;;;;;;;;4972471;28;20432;-52
2022/06/05 08:24:42;;;;;;;7.30;6.70;;;;;;;;;;4972890;28;20415;-53
2022/06/05 08:27:10;;;;;;;7.17;6.67;;;;;;;;;;4972610;28;20444;-53
2022/06/05 08:29:36;;;;;;;7.20;6.30;;;;;;;;;;4972468;28;20459;-52
2022/06/05 08:32:02;;;;;;;5.90;5.50;;;;;;;;;;4972558;28;20432;-53
2022/06/05 08:34:28;;;;;;;6.80;6.13;;;;;;;;;;4972657;28;20940;-53
2022/06/05 08:42:39;;;;;;;6.53;5.63;;;;;;;;;;4972400;28;20435;-54
2022/06/05 08:45:10;;;;;;;4.90;4.50;;;;;;;;;;4971179;28;20417;-55
2022/06/05 08:47:43;;;;;;;4.70;4.40;;;;;;;;;;4971939;28;20809;-55
2022/06/05 08:50:13;;;;;;;5.47;4.97;;;;;;;;;;4972013;28;20437;-54
2022/06/05 08:52:50;;;;;;;5.03;4.63;;;;;;;;;;4972478;28;20484;-53
2022/06/05 08:55:22;;;;;;;5.50;5.00;;;;;;;;;;4972349;28;20416;-53
2022/06/05 08:57:51;;;;;;;6.73;6.10;;;;;;;;;;4972429;28;20462;-54
2022/06/05 09:00:36;;;;;;;5.83;5.40;;;;;;;;;;4971638;28;20511;-54
2022/06/05 09:03:32;;;;;;;6.20;5.70;;;;;;;;;;4972270;28;20405;-54
2022/06/05 09:06:10;;;;;;;5.53;5.13;;;;;;;;;;4947243;28;20432;-53
2022/06/05 09:08:38;;;;;;;5.93;5.43;;;;;;;;;;4974237;28;20417;-56
2022/06/05 09:11:06;;;;;;;6.60;5.83;;;;;;;;;;4976244;28;20433;-55
2022/06/05 09:13:42;;;;;;;6.27;5.80;;;;;;;;;;4975996;28;20966;-53
2022/06/05 09:16:11;;;;;;;6.27;5.87;;;;;;;;;;4974115;28;20411;-54
2022/06/05 09:18:38;;;;;;;6.17;5.57;;;;;;;;;;4980022;28;20448;-54
2022/06/05 09:21:10;;;;;;;6.90;6.40;;;;;;;;;;4978184;28;20523;-56
2022/06/05 09:23:42;;;;;;;6.37;5.97;;;;;;;;;;4976559;28;20901;-56
2022/06/05 09:26:25;;;;;;;6.23;5.83;;;;;;;;;;4976904;28;20436;-56
2022/06/05 09:29:04;;;;;;;6.43;6.03;;;;;;;;;;4974595;28;21036;-55
2022/06/05 09:31:57;;;;;;;6.33;5.83;;;;;;;;;;4977507;28;20405;-56
2022/06/05 09:34:26;;;;;;;6.67;6.07;;;;;;;;;;4974403;28;20425;-56
2022/06/05 09:37:01;;;;;;;6.97;6.40;;;;;;;;;;4978401;28;20963;-55
2022/06/05 09:39:31;;;;;;;8.90;6.80;;;;;;;;;;4978108;28;20424;-56
2022/06/05 09:42:29;;;;;;;6.47;6.07;;;;;;;;;;4978941;28;20433;-56
2022/06/05 09:45:01;;;;;;;7.03;6.47;;;;;;;;;;4982616;28;20923;-54
2022/06/05 09:47:47;;;;;;;7.30;6.60;;;;;;;;;;4984620;28;20408;-55
2022/06/05 09:50:25;;;;;;;6.67;6.17;;;;;;;;;;4977515;28;20526;-55
2022/06/05 09:52:51;;;;;;;6.87;6.37;;;;;;;;;;4978004;28;20411;-56
2022/06/05 09:55:23;;;;;;;6.83;6.37;;;;;;;;;;4977855;28;20489;-56
2022/06/05 10:00:43;;;;;;;6.57;6.07;;;;;;;;;;4979930;28;20540;-55
2022/06/05 10:03:13;;;;;;;7.13;6.63;;;;;;;;;;4994076;28;20432;-56
2022/06/05 10:05:44;;;;;;;6.83;6.30;;;;;;;;;;4992153;28;20450;-53
2022/06/05 10:08:23;;;;;;;7.60;6.90;;;;;;;;;;4975518;28;20400;-54
2022/06/05 10:10:53;;;;;;;7.90;7.23;;;;;;;;;;4974988;28;20527;-52
2022/06/05 10:13:22;;;;;;;7.70;7.20;;;;;;;;;;4976131;28;20453;-55
2022/06/05 10:15:55;;;;;;;7.00;6.33;;;;;;;;;;4976310;28;20507;-55
2022/06/05 10:18:31;;;;;;;7.77;7.07;;;;;;;;;;4967372;28;20466;-55
2022/06/05 10:20:57;;;;;;;7.00;6.30;;;;;;;;;;4977800;28;20443;-55
2022/06/05 10:23:26;;;;;;;7.37;6.77;;;;;;;;;;4976684;28;20459;-55
2022/06/05 10:25:52;;;;;;;7.87;7.27;;;;;;;;;;4975194;28;20555;-55
2022/06/05 10:28:21;;;;;;;7.50;6.80;;;;;;;;;;4974806;28;20988;-55
2022/06/05 10:30:56;;;;;;;7.80;7.20;;;;;;;;;;4974971;28;20577;-55
2022/06/05 10:33:42;;;;;;;8.40;7.67;;;;;;;;;;4974958;28;20416;-55
2022/06/05 10:36:11;;;;;;;8.10;7.50;;;;;;;;;;4975428;28;20432;-55
2022/06/05 10:38:46;;;;;;;8.10;7.50;;;;;;;;;;4977411;28;20417;-54
2022/06/05 10:41:30;;;;;;;9.50;8.73;;;;;;;;;;4977407;28;20440;-55
2022/06/05 10:44:22;;;;;;;8.97;8.33;;;;;;;;;;4976685;28;20487;-55
2022/06/05 10:46:51;;;;;;;9.13;8.13;;;;;;;;;;4973107;28;20417;-55
2022/06/05 10:49:25;;;;;;;9.20;8.40;;;;;;;;;;4959375;28;20445;-54
2022/06/05 10:52:03;;;;;;;8.33;7.63;;;;;;;;;;4977583;28;20677;-53
2022/06/05 10:54:29;;;;;;;9.50;8.70;;;;;;;;;;4978392;28;20423;-54
2022/06/05 10:57:15;;;;;;;9.07;8.27;;;;;;;;;;4977918;28;20828;-55
2022/06/05 10:59:41;;;;;;;9.27;8.47;;;;;;;;;;4978572;28;20432;-54
2022/06/05 11:02:16;;;;;;;10.10;9.30;;;;;;;;;;4978205;28;20413;-53
2022/06/05 11:04:59;;;;;;;9.30;8.60;;;;;;;;;;4977769;28;20521;-54
2022/06/05 11:07:40;;;;;;;9.73;9.03;;;;;;;;;;4963114;28;20425;-53
2022/06/05 11:10:15;;;;;;;9.83;9.03;;;;;;;;;;4981264;28;20427;-53
2022/06/05 11:15:43;;;;;;;10.93;10.13;;;;;;;;;;4981439;28;20400;-53
2022/06/05 11:18:09;;;;;;;10.00;9.30;;;;;;;;;;4981548;28;20469;-54
2022/06/05 11:20:35;;;;;;;11.20;10.10;;;;;;;;;;4981117;28;20433;-54
2022/06/05 11:23:11;;;;;;;10.17;9.47;;;;;;;;;;4981137;28;20416;-53
2022/06/05 11:25:41;;;;;;;9.67;8.87;;;;;;;;;;4981306;28;20889;-54
2022/06/05 11:28:10;;;;;;;11.00;9.90;;;;;;;;;;4979884;28;20427;-54
2022/06/05 11:30:39;;;;;;;11.47;10.47;;;;;;;;;;4980330;28;20440;-54
2022/06/05 11:33:35;;;;;;;11.30;10.40;;;;;;;;;;4979814;28;20424;-54
2022/06/05 11:36:20;;;;;;;14.77;13.37;;;;;;;;;;4958649;28;20433;-54
2022/06/05 11:38:46;;;;;;;13.20;11.80;;;;;;;;;;4977802;28;20849;-55
2022/06/05 11:41:18;;;;;;;12.00;11.00;;;;;;;;;;4978191;28;20507;-54
2022/06/05 11:43:44;;;;;;;11.80;10.80;;;;;;;;;;4979400;28;20404;-54
2022/06/05 11:46:20;;;;;;;10.90;10.00;;;;;;;;;;4978349;28;20446;-52
2022/06/05 11:48:55;;;;;;;10.80;10.00;;;;;;;;;;4978411;28;20405;-55
2022/06/05 11:51:27;;;;;;;11.13;10.13;;;;;;;;;;4978484;28;20419;-55
2022/06/05 11:54:17;;;;;;;11.90;10.80;;;;;;;;;;4968379;28;20419;-54
2022/06/05 11:56:59;;;;;;;11.10;10.10;;;;;;;;;;4951262;28;20465;-52
2022/06/05 11:59:28;;;;;;;11.70;10.50;;;;;;;;;;4984815;28;20440;-54
2022/06/05 12:01:56;;;;;;;10.77;9.87;;;;;;;;;;4978374;28;20409;-55
2022/06/05 12:04:32;;;;;;;11.30;10.40;;;;;;;;;;4978612;28;20445;-53
2022/06/05 12:07:00;;;;;;;11.87;10.77;;;;;;;;;;4979624;28;20435;-53
2022/06/05 12:09:28;;;;;;;12.00;10.80;;;;;;;;;;4975580;28;20953;-53
2022/06/05 12:12:00;;;;;;;10.77;9.97;;;;;;;;;;4973920;28;20877;-53
2022/06/05 12:14:29;;;;;;;11.77;10.80;;;;;;;;;;4973470;28;20408;-51
2022/06/05 12:17:06;;;;;;;10.13;9.30;;;;;;;;;;4973489;28;20448;-52
2022/06/05 12:19:38;;;;;;;10.70;9.80;;;;;;;;;;4973127;28;20427;-52
2022/06/05 12:22:26;;;;;;;11.50;10.40;;;;;;;;;;4973282;28;20408;-53
2022/06/05 12:25:01;;;;;;;11.00;10.00;;;;;;;;;;4973350;28;20437;-49
2022/06/05 12:27:40;;;;;;;10.27;9.40;;;;;;;;;;4973115;28;20424;-53
2022/06/05 12:30:14;;;;;;;9.47;8.67;;;;;;;;;;4974264;28;20465;-54
2022/06/05 12:32:42;;;;;;;10.70;9.80;;;;;;;;;;4976980;28;20416;-50
2022/06/05 12:35:17;;;;;;;9.83;9.13;;;;;;;;;;4968710;28;20413;-50
2022/06/05 12:37:47;;;;;;;9.87;8.90;;;;;;;;;;4972971;28;20463;-49
2022/06/05 12:40:18;;;;;;;9.50;8.70;;;;;;;;;;4972499;28;20491;-53
2022/06/05 12:42:48;;;;;;;9.40;8.70;;;;;;;;;;4972515;28;20417;-53
2022/06/05 12:45:17;;;;;;;9.10;8.50;;;;;;;;;;4976901;28;20405;-53
2022/06/05 12:47:52;;;;;;;9.43;8.63;;;;;;;;;;4976770;28;20410;-50
2022/06/05 12:50:20;;;;;;;9.37;8.40;;;;;;;;;;4976854;28;20433;-51
2022/06/05 12:52:53;;;;;;;8.97;8.30;;;;;;;;;;4976722;28;20464;-50
2022/06/05 12:55:22;;;;;;;8.33;7.73;;;;;;;;;;4975455;28;20409;-51
2022/06/05 12:57:58;;;;;;;8.83;8.03;;;;;;;;;;4976681;28;20555;-52
2022/06/05 13:00:32;;;;;;;8.10;7.40;;;;;;;;;;4976703;28;20416;-52
2022/06/05 13:03:02;;;;;;;8.67;8.07;;;;;;;;;;4976528;28;20396;-51
2022/06/05 13:05:51;;;;;;;8.40;7.80;;;;;;;;;;4976703;28;20428;-51
2022/06/05 13:08:49;;;;;;;8.27;7.57;;;;;;;;;;4964245;28;20408;-51
2022/06/05 13:11:19;;;;;;;9.83;8.93;;;;;;;;;;4923485;28;20416;-51
2022/06/05 13:14:18;;;;;;;9.70;9.00;;;;;;;;;;4976350;28;20451;-51
2022/06/05 13:16:50;;;;;;;9.00;8.30;;;;;;;;;;4923602;28;20906;-50
2022/06/05 13:19:28;;;;;;;9.83;9.03;;;;;;;;;;4976264;28;20425;-52
2022/06/05 13:22:03;;;;;;;10.43;9.63;;;;;;;;;;4976134;28;20397;-49
2022/06/05 13:24:45;;;;;;;9.80;9.00;;;;;;;;;;4976085;28;20455;-53
2022/06/05 13:27:50;;;;;;;10.70;9.80;;;;;;;;;;4976506;28;20405;-52
2022/06/05 13:30:17;;;;;;;11.47;10.57;;;;;;;;;;4870161;29;20946;-52
2022/06/05 13:33:02;;;;;;;10.83;10.03;;;;;;;;;;4852648;29;20424;-55
2022/06/05 13:35:28;;;;;;;10.03;9.33;;;;;;;;;;4931876;28;20417;-53
2022/06/05 13:38:02;;;;;;;10.73;9.90;;;;;;;;;;4975846;28;20460;-49
2022/06/05 13:40:47;;;;;;;9.40;8.80;;;;;;;;;;4975591;28;20914;-50
2022/06/05 13:43:34;;;;;;;10.60;9.80;;;;;;;;;;4975758;28;20407;-51
2022/06/05 13:46:04;;;;;;;9.00;8.40;;;;;;;;;;4976001;28;20415;-50
2022/06/05 13:48:42;;;;;;;10.57;9.70;;;;;;;;;;4975931;28;20400;-49
2022/06/05 13:51:08;;;;;;;10.00;9.20;;;;;;;;;;4995017;28;20799;-49
2022/06/05 13:53:39;;;;;;;9.33;8.63;;;;;;;;;;4994995;28;20410;-51
2022/06/05 13:56:09;;;;;;;10.30;9.50;;;;;;;;;;4993751;28;20411;-51
2022/06/05 13:58:41;;;;;;;9.67;8.97;;;;;;;;;;4995040;28;20426;-51
2022/06/05 14:01:23;;;;;;;11.03;9.83;;;;;;;;;;4995113;28;20416;-51
2022/06/05 14:03:54;;;;;;;10.60;9.80;;;;;;;;;;4994941;28;20393;-51
2022/06/05 14:06:32;;;;;;;9.90;9.20;;;;;;;;;;4995007;28;20849;-51
2022/06/05 14:09:06;;;;;;;9.80;9.07;;;;;;;;;;4994898;28;20417;-51
2022/06/05 14:11:34;;;;;;;9.33;8.50;;;;;;;;;;4994868;28;20435;-52
2022/06/05 14:14:02;;;;;;;9.83;9.13;;;;;;;;;;4994550;28;20397;-51
2022/06/05 14:16:37;;;;;;;9.27;8.63;;;;;;;;;;4995036;28;20819;-50
2022/06/05 14:19:05;;;;;;;10.57;9.77;;;;;;;;;;4994457;28;20434;-50
2022/06/05 14:21:41;;;;;;;9.00;8.27;;;;;;;;;;4959953;29;20826;-54
2022/06/05 14:24:22;;;;;;;10.83;10.03;;;;;;;;;;4960403;29;20850;-54
2022/06/05 14:26:51;;;;;;;10.70;9.90;;;;;;;;;;4960807;29;20410;-54
2022/06/05 14:29:47;;;;;;;11.13;10.20;;;;;;;;;;4961470;28;20961;-54
2022/06/05 14:32:18;;;;;;;10.53;9.83;;;;;;;;;;4962682;28;20423;-53
2022/06/05 14:34:46;;;;;;;11.40;10.47;;;;;;;;;;4979532;28;20426;-53
2022/06/05 14:37:29;;;;;;;11.37;10.47;;;;;;;;;;4979857;28;20460;-53
2022/06/05 14:39:57;;;;;;;10.80;9.97;;;;;;;;;;4979404;28;20455;-54
2022/06/05 14:42:26;;;;;;;11.93;10.70;;;;;;;;;;4979446;28;20798;-53
2022/06/05 14:44:56;;;;;;;12.90;11.70;;;;;;;;;;4979929;28;20441;-54
2022/06/05 14:47:26;;;;;;;13.03;11.93;;;;;;;;;;4980106;28;20783;-52
2022/06/05 14:58:43;;;;;;;12.93;11.63;;;;;;;;;;4967617;28;20495;-49
2022/06/05 15:01:27;;;;;;;13.03;12.03;;;;;;;;;;4955695;28;20433;-50
2022/06/05 15:03:59;;;;;;;13.53;12.40;;;;;;;;;;4974521;28;20405;-50
2022/06/05 15:06:27;;;;;;;13.37;12.20;;;;;;;;;;4966772;28;20421;-49
2022/06/05 15:08:57;;;;;;;13.37;12.03;;;;;;;;;;4955176;28;20405;-50
2022/06/05 15:11:31;;;;;;;12.97;11.77;;;;;;;;;;4955065;28;20404;-49
2022/06/05 15:14:06;;;;;;;15.70;12.30;;;;;;;;;;4955167;28;20525;-51
2022/06/05 15:16:41;;;;;;;12.27;11.17;;;;;;;;;;4954943;28;20468;-48
2022/06/05 15:19:24;;;;;;;12.70;11.70;;;;;;;;;;4954926;28;20461;-51
2022/06/05 15:21:56;;;;;;;13.17;12.07;;;;;;;;;;4954829;28;20480;-49
2022/06/05 15:24:29;;;;;;;12.83;11.83;;;;;;;;;;4954652;28;20414;-50
2022/06/05 15:27:06;;;;;;;12.90;11.70;;;;;;;;;;4954231;28;20421;-49
2022/06/05 15:29:58;;;;;;;12.83;11.57;;;;;;;;;;4954831;28;20469;-49
2022/06/05 15:32:28;;;;;;;12.20;11.03;;;;;;;;;;4937125;28;20528;-51